Time;durP1;ratioP1;P1;durP2;ratioP2;P2;SDS_P1;SDS_P2;PMS_P1;PMS_P2;Temp;Humidity;BMP_temperature;BMP_pressure;BME280_temperature;BME280_humidity;BME280_pressure;Samples;Min_cycle;Max_cycle;Signal;HPM_P1;HPM_P2
2023/06/26 00:01:31;;;;;;;8.98;6.95;;;;;;;27.79;40.54;99555.22;4362450;32;33519;-68
2023/06/26 00:04:00;;;;;;;8.30;6.53;;;;;;;27.79;40.54;99549.72;4362495;32;33663;-65
2023/06/26 00:06:27;;;;;;;8.32;6.55;;;;;;;27.78;40.54;99553.56;4362203;32;33994;-65
2023/06/26 00:08:55;;;;;;;8.88;6.72;;;;;;;27.75;40.54;99552.19;4362443;32;34189;-69
2023/06/26 00:11:23;;;;;;;7.47;6.35;;;;;;;27.75;40.53;99554.09;4362349;32;33707;-65
2023/06/26 00:13:50;;;;;;;8.80;6.55;;;;;;;27.74;40.54;99553.25;4362138;32;33842;-67
2023/06/26 00:16:18;;;;;;;8.63;6.32;;;;;;;27.73;40.50;99553.53;4348864;32;33852;-65
2023/06/26 00:18:45;;;;;;;9.32;6.53;;;;;;;27.73;40.50;99553.53;4362427;32;34810;-63
2023/06/26 00:21:13;;;;;;;9.45;6.62;;;;;;;27.72;40.48;99555.44;4362203;32;33120;-68
2023/06/26 00:23:40;;;;;;;9.00;6.90;;;;;;;27.71;40.44;99551.87;4362597;32;33908;-64
2023/06/26 00:26:10;;;;;;;8.23;6.62;;;;;;;27.70;40.44;99550.19;4362166;32;33862;-65
2023/06/26 00:28:37;;;;;;;8.98;6.75;;;;;;;27.70;40.39;99557.59;4362066;32;34829;-69
2023/06/26 00:31:05;;;;;;;9.80;6.85;;;;;;;27.70;40.35;99550.19;4362302;32;34495;-66
2023/06/26 00:33:33;;;;;;;7.55;6.05;;;;;;;27.68;40.36;99554.28;4362206;32;34666;-70
2023/06/26 00:36:00;;;;;;;9.02;6.65;;;;;;;27.69;40.38;99555.91;4362095;32;34486;-64
2023/06/26 00:38:28;;;;;;;9.55;6.87;;;;;;;27.67;40.38;99556.19;4372576;32;34058;-66
2023/06/26 00:40:57;;;;;;;12.02;6.97;;;;;;;27.66;40.33;99565.50;4377145;32;33033;-66
2023/06/26 00:43:25;;;;;;;8.30;6.50;;;;;;;27.66;40.30;99562.78;4376899;32;33418;-63
2023/06/26 00:45:52;;;;;;;9.90;6.82;;;;;;;27.66;40.29;99556.47;4377004;32;34486;-65
2023/06/26 00:48:20;;;;;;;8.77;6.90;;;;;;;27.66;40.28;99565.50;4377168;32;34132;-68
2023/06/26 00:50:50;;;;;;;7.57;6.40;;;;;;;27.64;40.29;99556.69;4377225;32;34327;-68
2023/06/26 00:53:18;;;;;;;9.80;6.60;;;;;;;27.63;40.26;99557.78;4363471;32;34764;-65
2023/06/26 00:55:45;;;;;;;11.15;7.15;;;;;;;27.63;40.24;99555.06;4363603;32;34876;-63
2023/06/26 00:58:13;;;;;;;8.38;6.68;;;;;;;27.61;40.23;99549.03;4376909;32;33982;-68
2023/06/26 01:00:41;;;;;;;8.82;6.72;;;;;;;27.61;40.21;99543.53;4363806;32;34433;-68
2023/06/26 01:03:09;;;;;;;8.93;6.10;;;;;;;27.62;40.24;99549.84;4361535;32;33135;-65
2023/06/26 01:05:38;;;;;;;8.75;6.90;;;;;;;27.61;40.29;99549.03;4376977;32;33651;-65
2023/06/26 01:08:05;;;;;;;9.80;7.18;;;;;;;27.60;40.28;99547.34;4363764;32;33727;-64
2023/06/26 01:10:33;;;;;;;9.57;6.97;;;;;;;27.60;40.21;99541.84;4362881;32;34316;-65
2023/06/26 01:13:01;;;;;;;8.55;6.15;;;;;;;27.59;40.18;99540.22;4363477;32;33746;-65
2023/06/26 01:15:29;;;;;;;8.65;6.62;;;;;;;27.58;40.18;99537.75;4376977;32;34550;-65
2023/06/26 01:18:01;;;;;;;9.32;6.70;;;;;;;27.56;40.16;99529.78;4363381;32;34010;-65
2023/06/26 01:20:41;;;;;;;10.40;7.68;;;;;;;27.56;40.15;99535.28;4363823;32;34377;-66
2023/06/26 01:23:26;;;;;;;8.93;6.82;;;;;;;27.57;40.16;99530.63;4363693;32;33610;-64
2023/06/26 01:25:54;;;;;;;8.18;6.87;;;;;;;27.58;40.12;99527.59;4363316;32;33647;-64
2023/06/26 01:28:22;;;;;;;8.20;6.50;;;;;;;27.54;40.15;99531.94;4376853;32;33641;-64
2023/06/26 01:30:50;;;;;;;10.57;7.22;;;;;;;27.52;40.17;99523.19;4363177;32;33620;-65
2023/06/26 01:33:17;;;;;;;10.50;7.35;;;;;;;27.51;40.16;99524.25;4351116;32;33816;-64
2023/06/26 01:35:45;;;;;;;9.30;7.45;;;;;;;27.51;40.10;99521.50;4351480;32;33923;-66
2023/06/26 01:38:17;;;;;;;7.78;6.70;;;;;;;27.51;39.99;99521.50;4362955;32;34807;-64
2023/06/26 01:40:44;;;;;;;12.40;7.28;;;;;;;27.51;39.97;99526.16;4363235;32;33346;-64
2023/06/26 01:43:23;;;;;;;8.85;6.85;;;;;;;27.51;39.98;99513.28;4363089;32;33778;-64
2023/06/26 01:45:51;;;;;;;10.32;6.68;;;;;;;27.51;39.93;99517.94;4376663;32;33864;-65
2023/06/26 01:48:22;;;;;;;8.98;7.12;;;;;;;27.50;39.90;99524.50;4376945;32;34216;-64
2023/06/26 01:50:51;;;;;;;8.70;7.00;;;;;;;27.48;39.91;99519.31;4362960;32;33583;-64
2023/06/26 01:53:20;;;;;;;9.90;7.43;;;;;;;27.46;39.88;99518.72;4363284;32;34560;-65
2023/06/26 01:55:55;;;;;;;9.27;7.15;;;;;;;27.45;39.94;99528.03;4376504;32;33922;-65
2023/06/26 01:58:24;;;;;;;10.85;7.32;;;;;;;27.45;39.86;99528.03;4376587;32;34018;-64
2023/06/26 02:00:52;;;;;;;8.53;6.77;;;;;;;27.44;39.87;99523.63;4350992;32;33333;-68
2023/06/26 02:03:20;;;;;;;9.13;7.62;;;;;;;27.44;39.79;99526.38;4362940;32;34696;-64
2023/06/26 02:05:47;;;;;;;10.25;6.32;;;;;;;27.44;39.77;99529.13;4376406;32;34743;-64
2023/06/26 02:08:15;;;;;;;8.77;6.75;;;;;;;27.43;39.79;99522.00;4376396;32;35110;-64
2023/06/26 02:10:48;;;;;;;11.45;7.22;;;;;;;27.42;39.80;99523.09;4363506;32;34401;-64
2023/06/26 02:13:16;;;;;;;10.15;6.72;;;;;;;27.41;39.76;99516.75;4376413;32;33853;-65
2023/06/26 02:15:44;;;;;;;10.85;7.45;;;;;;;27.41;39.75;99516.75;4362784;32;34903;-65
2023/06/26 02:18:11;;;;;;;9.98;6.68;;;;;;;27.41;39.69;99519.50;4376184;32;34932;-65
2023/06/26 02:20:39;;;;;;;9.23;7.57;;;;;;;27.39;39.64;99516.19;4376290;32;34439;-65
2023/06/26 02:23:07;;;;;;;8.75;6.87;;;;;;;27.39;39.64;99518.94;4376368;32;33619;-64
2023/06/26 02:25:35;;;;;;;9.25;7.05;;;;;;;27.40;39.60;99522.50;4376064;32;33729;-65
2023/06/26 02:28:03;;;;;;;9.40;7.05;;;;;;;27.39;39.58;99521.69;4376294;32;34824;-67
2023/06/26 02:30:30;;;;;;;11.00;6.78;;;;;;;27.39;39.56;99529.91;4376166;32;34042;-65
2023/06/26 02:32:59;;;;;;;11.87;7.50;;;;;;;27.37;39.48;99526.59;4376184;32;33704;-63
2023/06/26 02:35:27;;;;;;;9.85;7.07;;;;;;;27.38;39.44;99530.16;4376166;32;33519;-69
2023/06/26 02:37:54;;;;;;;9.43;7.40;;;;;;;27.37;39.45;99533.97;4368825;32;33759;-65
2023/06/26 02:40:22;;;;;;;9.95;7.50;;;;;;;27.35;39.39;99538.91;4361514;32;33048;-63
2023/06/26 02:42:52;;;;;;;8.60;6.95;;;;;;;27.35;39.39;99539.72;4361244;32;34631;-65
2023/06/26 02:45:19;;;;;;;9.10;7.55;;;;;;;27.33;39.35;99530.13;4361075;32;33971;-63
2023/06/26 02:47:47;;;;;;;8.57;6.55;;;;;;;27.33;39.39;99532.88;4361234;32;34831;-65
2023/06/26 02:50:15;;;;;;;11.07;7.45;;;;;;;27.32;39.38;99532.00;4361057;32;33044;-64
2023/06/26 02:52:47;;;;;;;8.13;6.53;;;;;;;27.33;39.30;99539.16;4361104;32;33793;-65
2023/06/26 02:55:15;;;;;;;9.93;6.97;;;;;;;27.34;39.32;99537.25;4361222;32;34700;-65
2023/06/26 02:57:43;;;;;;;9.15;6.55;;;;;;;27.33;39.31;99547.38;4360944;32;35219;-64
2023/06/26 03:00:11;;;;;;;9.32;6.72;;;;;;;27.31;39.33;99544.06;4360967;32;34393;-65
2023/06/26 03:02:40;;;;;;;10.02;6.05;;;;;;;27.32;39.29;99544.88;4361122;32;32692;-65
2023/06/26 03:05:08;;;;;;;9.60;7.22;;;;;;;27.32;39.23;99536.66;4361082;32;32725;-64
2023/06/26 03:07:36;;;;;;;7.97;6.43;;;;;;;27.31;39.23;99535.84;4360778;32;34044;-65
2023/06/26 03:10:05;;;;;;;10.70;7.20;;;;;;;27.31;39.19;99544.06;4361067;32;33843;-64
2023/06/26 03:12:32;;;;;;;9.35;6.93;;;;;;;27.30;39.10;99539.66;4361019;32;33574;-64
2023/06/26 03:15:00;;;;;;;8.82;6.93;;;;;;;27.30;39.13;99547.06;4360491;32;34492;-64
2023/06/26 03:17:28;;;;;;;8.18;6.40;;;;;;;27.29;39.12;99543.50;4361033;32;35138;-63
2023/06/26 03:19:57;;;;;;;10.40;7.03;;;;;;;27.29;39.17;99545.41;4360935;32;33355;-64
2023/06/26 03:22:25;;;;;;;10.32;6.60;;;;;;;27.29;39.11;99551.72;4346815;32;32200;-66
2023/06/26 03:24:53;;;;;;;11.90;7.18;;;;;;;27.27;39.16;99551.13;4360520;32;34132;-65
2023/06/26 03:27:20;;;;;;;9.63;6.70;;;;;;;27.26;39.21;99556.88;4361396;32;34085;-64
2023/06/26 03:29:48;;;;;;;10.43;6.40;;;;;;;27.26;39.18;99559.63;4350495;32;33577;-67
2023/06/26 03:32:16;;;;;;;8.05;6.97;;;;;;;27.25;39.16;99557.97;4364366;32;33963;-70
2023/06/26 03:34:44;;;;;;;8.65;6.57;;;;;;;27.25;39.14;99555.25;4373587;32;34840;-71
2023/06/26 03:37:11;;;;;;;9.15;6.32;;;;;;;27.24;39.15;99557.16;4369899;32;33796;-69
2023/06/26 03:39:39;;;;;;;8.45;6.62;;;;;;;27.23;39.13;99550.00;4362881;32;34862;-66
2023/06/26 03:42:07;;;;;;;9.40;6.95;;;;;;;27.24;39.16;99556.31;4378764;32;34453;-69
2023/06/26 03:44:34;;;;;;;8.90;6.82;;;;;;;27.23;39.18;99555.47;4362612;32;33611;-69
2023/06/26 03:47:02;;;;;;;13.82;6.35;;;;;;;27.21;39.21;99553.00;4361349;32;34094;-64
2023/06/26 03:49:29;;;;;;;10.68;6.80;;;;;;;27.21;39.20;99550.25;4361359;32;33759;-69
2023/06/26 03:51:57;;;;;;;9.35;6.93;;;;;;;27.21;39.17;99555.75;4362564;32;33603;-69
2023/06/26 03:54:25;;;;;;;11.30;6.53;;;;;;;27.21;39.23;99555.75;4353991;32;34075;-63
2023/06/26 03:56:53;;;;;;;10.02;6.40;;;;;;;27.21;39.28;99565.87;4347472;33;33916;-65
2023/06/26 03:59:21;;;;;;;8.70;6.62;;;;;;;27.20;39.22;99562.31;4346765;33;34152;-68
2023/06/26 04:01:49;;;;;;;8.73;6.40;;;;;;;27.20;39.22;99564.22;4347650;33;33949;-70
2023/06/26 04:04:20;;;;;;;10.13;6.62;;;;;;;27.20;39.19;99564.22;4358508;32;32695;-64
2023/06/26 04:06:47;;;;;;;9.75;6.95;;;;;;;27.20;39.12;99564.22;4347550;33;35087;-65
2023/06/26 04:09:15;;;;;;;9.75;6.70;;;;;;;27.18;39.12;99564.47;4347747;33;33616;-64
2023/06/26 04:11:44;;;;;;;8.50;6.90;;;;;;;27.17;39.14;99564.72;4347488;33;33637;-66
2023/06/26 04:14:12;;;;;;;11.68;6.55;;;;;;;27.16;39.18;99563.91;4347516;33;33668;-65
2023/06/26 04:16:40;;;;;;;9.00;6.68;;;;;;;27.16;39.21;99563.91;4347480;33;34815;-64
2023/06/26 04:19:09;;;;;;;11.90;7.40;;;;;;;27.17;39.18;99564.72;4347415;33;33425;-66
2023/06/26 04:21:37;;;;;;;9.50;6.62;;;;;;;27.16;39.18;99563.91;4347433;33;34812;-64
2023/06/26 04:24:05;;;;;;;12.98;6.87;;;;;;;27.17;39.15;99562.00;4346435;33;34136;-65
2023/06/26 04:26:33;;;;;;;9.50;6.78;;;;;;;27.16;39.18;99568.56;4347280;33;34972;-64
2023/06/26 04:29:00;;;;;;;8.35;6.43;;;;;;;27.16;39.21;99569.38;4347464;33;33572;-63
2023/06/26 04:31:28;;;;;;;9.43;6.30;;;;;;;27.15;39.21;99573.22;4359360;32;34656;-63
2023/06/26 04:33:56;;;;;;;8.95;6.22;;;;;;;27.16;39.22;99572.13;4362113;32;34134;-65
2023/06/26 04:36:27;;;;;;;9.00;6.50;;;;;;;27.15;39.24;99565.00;4362093;32;34070;-64
2023/06/26 04:38:56;;;;;;;7.20;5.80;;;;;;;27.15;39.22;99566.91;4347808;32;34140;-65
2023/06/26 04:41:23;;;;;;;10.43;5.97;;;;;;;27.15;39.25;99564.16;4346131;33;33533;-65
2023/06/26 04:43:51;;;;;;;8.43;6.40;;;;;;;27.15;39.24;99569.66;4368635;32;34003;-65
2023/06/26 04:46:19;;;;;;;8.55;6.15;;;;;;;27.14;39.28;99566.09;4363670;32;34925;-65
2023/06/26 04:48:46;;;;;;;9.35;6.53;;;;;;;27.15;39.27;99572.38;4377114;32;33405;-64
2023/06/26 04:51:14;;;;;;;8.27;6.30;;;;;;;27.14;39.32;99574.31;4377058;32;34084;-65
2023/06/26 04:53:42;;;;;;;8.35;6.18;;;;;;;27.14;39.35;99570.72;4377048;32;34109;-66
2023/06/26 04:56:10;;;;;;;8.95;6.30;;;;;;;27.14;39.36;99571.56;4377498;32;33711;-66
2023/06/26 04:58:38;;;;;;;8.30;5.97;;;;;;;27.15;39.37;99572.38;4377026;32;34334;-65
2023/06/26 05:01:06;;;;;;;8.52;6.22;;;;;;;27.16;39.39;99574.84;4376910;32;34689;-63
2023/06/26 05:03:35;;;;;;;7.82;5.97;;;;;;;27.15;39.43;99575.13;4377235;32;33924;-65
2023/06/26 05:06:02;;;;;;;8.40;6.50;;;;;;;27.15;39.47;99575.94;4363246;32;33118;-64
2023/06/26 05:08:36;;;;;;;7.82;6.28;;;;;;;27.15;39.49;99577.88;4376807;32;33899;-65
2023/06/26 05:11:03;;;;;;;9.40;5.97;;;;;;;27.15;39.52;99578.69;4363297;32;32840;-63
2023/06/26 05:13:31;;;;;;;8.57;6.57;;;;;;;27.14;39.56;99574.31;4376999;32;33690;-64
2023/06/26 05:15:59;;;;;;;9.15;6.45;;;;;;;27.16;39.57;99576.78;4376735;32;35047;-64
2023/06/26 05:18:26;;;;;;;8.15;6.43;;;;;;;27.15;39.60;99567.72;4376991;32;33235;-63
2023/06/26 05:20:54;;;;;;;9.32;6.37;;;;;;;27.16;39.64;99571.31;4376912;32;33751;-64
2023/06/26 05:23:22;;;;;;;11.27;6.32;;;;;;;27.17;39.65;99567.47;4376999;32;34014;-63
2023/06/26 05:25:50;;;;;;;8.95;6.43;;;;;;;27.17;39.67;99570.22;4359954;32;34740;-65
2023/06/26 05:28:17;;;;;;;9.02;6.18;;;;;;;27.16;39.70;99572.13;4367631;32;33561;-63
2023/06/26 05:30:46;;;;;;;10.93;6.68;;;;;;;27.17;39.76;99562.81;4369369;32;33132;-65
2023/06/26 05:33:14;;;;;;;9.02;6.15;;;;;;;27.18;39.83;99571.84;4363488;32;33773;-65
2023/06/26 05:35:41;;;;;;;8.73;6.25;;;;;;;27.18;39.84;99574.59;4373071;32;34039;-66
2023/06/26 05:38:09;;;;;;;10.18;6.60;;;;;;;27.18;39.86;99578.16;4348455;32;33598;-65
2023/06/26 05:40:40;;;;;;;10.35;6.32;;;;;;;27.18;39.93;99571.84;4361875;32;33584;-64
2023/06/26 05:43:08;;;;;;;10.65;6.40;;;;;;;27.17;39.92;99573.78;4361661;32;34036;-64
2023/06/26 05:45:36;;;;;;;9.77;6.07;;;;;;;27.18;39.98;99575.41;4361893;32;34012;-65
2023/06/26 05:48:03;;;;;;;8.82;6.50;;;;;;;27.17;40.05;99576.50;4361685;32;33578;-64
2023/06/26 05:50:31;;;;;;;8.52;6.10;;;;;;;27.18;40.09;99574.59;4348109;32;33114;-63
2023/06/26 05:53:02;;;;;;;8.10;6.18;;;;;;;27.18;40.09;99582.81;4361645;32;34017;-64
2023/06/26 05:55:30;;;;;;;11.77;6.32;;;;;;;27.18;40.08;99577.34;4365452;32;34099;-68
2023/06/26 05:57:59;;;;;;;11.15;6.82;;;;;;;27.17;40.12;99573.78;4370811;32;33700;-66
2023/06/26 06:00:27;;;;;;;11.43;6.18;;;;;;;27.18;40.20;99572.69;4368948;32;34082;-69
2023/06/26 06:02:55;;;;;;;8.80;6.43;;;;;;;27.19;40.16;99571.63;4391701;32;33733;-69
2023/06/26 06:05:23;;;;;;;11.48;6.75;;;;;;;27.19;40.18;99571.63;4383789;32;34222;-68
2023/06/26 06:07:50;;;;;;;9.90;6.47;;;;;;;27.18;40.22;99567.19;4363072;32;33573;-68
2023/06/26 06:10:18;;;;;;;10.60;6.32;;;;;;;27.18;40.28;99567.19;4362111;32;33883;-69
2023/06/26 06:12:45;;;;;;;9.02;6.60;;;;;;;27.17;40.31;99571.03;4376302;32;33918;-68
2023/06/26 06:15:13;;;;;;;9.90;6.75;;;;;;;27.18;40.33;99569.94;4376488;32;34340;-69
2023/06/26 06:17:41;;;;;;;10.50;7.12;;;;;;;27.18;40.30;99571.84;4384759;32;34136;-69
2023/06/26 06:20:09;;;;;;;10.32;6.70;;;;;;;27.17;40.25;99575.69;4391273;32;34692;-69
2023/06/26 06:22:36;;;;;;;9.90;7.30;;;;;;;27.17;40.23;99576.50;4391411;32;34424;-69
2023/06/26 06:25:04;;;;;;;9.90;7.00;;;;;;;27.17;40.20;99576.50;4391346;32;33809;-64
2023/06/26 06:27:31;;;;;;;10.63;6.22;;;;;;;27.17;40.22;99572.94;4391143;32;33615;-62
2023/06/26 06:29:59;;;;;;;9.40;7.18;;;;;;;27.17;40.25;99575.69;4388160;32;34666;-62
2023/06/26 06:32:27;;;;;;;8.75;6.18;;;;;;;27.16;40.23;99574.03;4376345;32;34902;-62
2023/06/26 06:34:54;;;;;;;9.98;6.53;;;;;;;27.15;40.25;99581.44;4376062;32;33909;-63
2023/06/26 06:37:22;;;;;;;9.20;7.03;;;;;;;27.17;40.27;99581.16;4375632;32;34280;-66
2023/06/26 06:39:49;;;;;;;10.52;7.12;;;;;;;27.15;40.29;99575.13;4376070;32;33957;-68
2023/06/26 06:42:17;;;;;;;10.90;7.28;;;;;;;27.16;40.31;99577.59;4375650;32;34994;-64
2023/06/26 06:44:44;;;;;;;11.00;6.28;;;;;;;27.17;40.33;99581.16;4375991;32;34131;-68
2023/06/26 06:47:12;;;;;;;8.32;6.65;;;;;;;27.18;40.34;99578.16;4375931;32;34313;-68
2023/06/26 06:49:40;;;;;;;12.50;6.90;;;;;;;27.18;40.36;99580.06;4375605;32;34720;-69
2023/06/26 06:52:07;;;;;;;10.55;7.15;;;;;;;27.19;40.38;99579.00;4375901;32;34762;-69
2023/06/26 06:54:53;;;;;;;11.80;6.80;;;;;;;27.20;40.37;99584.22;4350193;32;33941;-69
2023/06/26 06:57:21;;;;;;;8.30;6.50;;;;;;;27.25;40.33;99579.88;4375767;32;32981;-64
2023/06/26 06:59:49;;;;;;;9.32;6.75;;;;;;;27.24;40.35;99575.50;4362457;32;33550;-68
2023/06/26 07:02:17;;;;;;;8.40;6.53;;;;;;;27.23;40.36;99576.56;4376364;32;34482;-69
2023/06/26 07:04:44;;;;;;;8.77;6.57;;;;;;;27.24;40.37;99573.59;4364429;32;34162;-67
2023/06/26 07:07:13;;;;;;;11.20;6.68;;;;;;;27.26;40.35;99579.63;4377963;32;33591;-63
2023/06/26 07:09:41;;;;;;;8.68;6.40;;;;;;;27.26;40.34;99579.63;4364071;32;34686;-64
2023/06/26 07:12:08;;;;;;;12.15;7.28;;;;;;;27.28;40.35;99579.34;4377787;32;33690;-71
2023/06/26 07:14:36;;;;;;;9.95;6.25;;;;;;;27.29;40.38;99575.56;4377792;32;34574;-68
2023/06/26 07:17:04;;;;;;;11.98;6.43;;;;;;;27.29;40.40;99572.81;4377495;32;33280;-64
2023/06/26 07:19:31;;;;;;;8.82;6.45;;;;;;;27.31;40.43;99581.59;4377679;32;33413;-65
2023/06/26 07:21:59;;;;;;;12.25;6.28;;;;;;;27.31;40.47;99576.94;4377915;32;34004;-68
2023/06/26 07:24:26;;;;;;;8.63;6.15;;;;;;;27.33;40.45;99576.69;4377468;32;35006;-68
2023/06/26 07:26:54;;;;;;;10.30;6.43;;;;;;;27.34;40.42;99575.59;4377592;32;33622;-64
2023/06/26 07:29:22;;;;;;;10.43;6.70;;;;;;;27.35;40.39;99575.34;4377333;32;34103;-64
2023/06/26 07:31:49;;;;;;;12.50;7.00;;;;;;;27.35;40.26;99563.56;4363335;32;33712;-64
2023/06/26 07:34:17;;;;;;;9.05;6.72;;;;;;;27.35;40.13;99572.59;4362611;32;35020;-69
2023/06/26 07:36:44;;;;;;;9.45;6.95;;;;;;;27.37;40.10;99570.44;4362414;32;33176;-66
2023/06/26 07:39:12;;;;;;;9.15;6.87;;;;;;;27.39;40.14;99578.41;4362275;32;33898;-64
2023/06/26 07:41:48;;;;;;;10.00;7.00;;;;;;;27.39;40.15;99578.41;4362389;32;35024;-64
2023/06/26 07:44:15;;;;;;;10.77;6.35;;;;;;;27.41;40.16;99578.94;4362147;32;34027;-66
2023/06/26 07:46:44;;;;;;;11.27;6.78;;;;;;;27.41;40.17;99585.25;4362426;32;33301;-64
2023/06/26 07:49:12;;;;;;;9.10;6.05;;;;;;;27.41;40.17;99578.94;4362407;32;34766;-64
2023/06/26 07:51:39;;;;;;;8.43;5.85;;;;;;;27.41;40.17;99574.28;4362580;32;33883;-69
2023/06/26 07:54:07;;;;;;;8.88;6.45;;;;;;;27.42;40.16;99588.84;4348978;32;33834;-69
2023/06/26 07:56:52;;;;;;;10.13;6.72;;;;;;;27.40;40.18;99580.88;4365366;32;34111;-69
2023/06/26 07:59:20;;;;;;;9.93;6.95;;;;;;;27.42;40.17;99580.63;4352724;32;33885;-68
2023/06/26 08:01:49;;;;;;;9.07;6.53;;;;;;;27.44;40.15;99589.41;4376830;32;34067;-68
2023/06/26 08:04:21;;;;;;;9.50;6.22;;;;;;;27.44;40.17;99583.94;4371572;32;34234;-66
2023/06/26 08:06:50;;;;;;;8.50;6.70;;;;;;;27.44;40.15;99581.19;4377075;32;34374;-65
2023/06/26 08:09:18;;;;;;;9.97;6.77;;;;;;;27.43;40.14;99579.53;4377165;32;33963;-64
2023/06/26 08:11:46;;;;;;;10.32;6.07;;;;;;;27.44;40.09;99582.00;4363578;32;33575;-65
2023/06/26 08:14:14;;;;;;;10.38;6.97;;;;;;;27.45;40.09;99577.34;4377721;32;34050;-64
2023/06/26 08:16:46;;;;;;;8.63;6.25;;;;;;;27.44;40.05;99581.19;4372676;32;33699;-63
2023/06/26 08:19:14;;;;;;;8.30;6.40;;;;;;;27.45;40.07;99578.19;4346884;32;33587;-67
2023/06/26 08:21:42;;;;;;;7.95;5.93;;;;;;;27.45;40.08;99582.84;4372233;32;33954;-64
2023/06/26 08:24:10;;;;;;;8.48;6.18;;;;;;;27.46;40.06;99584.47;4377052;32;34176;-65
2023/06/26 08:26:37;;;;;;;8.82;7.22;;;;;;;27.46;40.02;99584.47;4377081;32;33583;-68
2023/06/26 08:29:08;;;;;;;10.90;6.50;;;;;;;27.48;39.97;99589.72;4377108;32;33812;-65
2023/06/26 08:31:39;;;;;;;10.82;6.40;;;;;;;27.48;39.96;99585.06;4377071;32;33581;-65
2023/06/26 08:34:07;;;;;;;12.65;8.18;;;;;;;27.49;39.95;99589.44;4377150;32;34961;-64
2023/06/26 08:36:35;;;;;;;10.73;7.40;;;;;;;27.51;39.88;99581.78;4377071;32;34216;-65
2023/06/26 08:39:04;;;;;;;10.05;6.78;;;;;;;27.53;39.61;99582.37;4376879;32;33740;-64
2023/06/26 08:41:32;;;;;;;9.70;7.28;;;;;;;27.54;39.66;99577.72;4377103;32;35023;-67
2023/06/26 08:44:00;;;;;;;9.13;6.60;;;;;;;27.54;39.69;99578.53;4349484;32;33429;-67
2023/06/26 08:46:28;;;;;;;9.98;6.72;;;;;;;27.53;39.74;99579.63;4358858;32;33574;-68
2023/06/26 08:49:01;;;;;;;11.88;6.65;;;;;;;27.55;39.73;99579.38;4348068;32;33415;-64
2023/06/26 08:51:29;;;;;;;9.73;6.43;;;;;;;27.55;39.74;99579.38;4358498;32;34011;-65
2023/06/26 08:53:58;;;;;;;8.70;6.90;;;;;;;27.55;39.73;99577.44;4361993;32;34742;-64
2023/06/26 08:56:39;;;;;;;9.47;6.17;;;;;;;27.55;39.74;99571.12;4347093;32;33537;-66
2023/06/26 08:59:07;;;;;;;9.60;6.93;;;;;;;27.57;39.70;99572.56;4349802;32;33534;-69
2023/06/26 09:01:34;;;;;;;8.80;6.55;;;;;;;27.57;39.67;99574.47;4357612;32;33884;-68
2023/06/26 09:04:02;;;;;;;8.30;6.30;;;;;;;27.57;39.67;99583.50;4343195;32;33740;-64
2023/06/26 09:06:30;;;;;;;9.68;6.68;;;;;;;27.56;39.69;99573.63;4357427;32;33592;-66
2023/06/26 09:09:01;;;;;;;9.68;6.32;;;;;;;27.58;39.68;99578.84;4363436;32;34702;-68
2023/06/26 09:11:29;;;;;;;10.77;7.30;;;;;;;27.58;39.68;99576.94;4376728;32;33578;-66
2023/06/26 09:13:57;;;;;;;9.20;6.30;;;;;;;27.58;39.57;99576.94;4376751;32;34842;-65
2023/06/26 09:16:27;;;;;;;9.95;7.25;;;;;;;27.59;39.51;99569.53;4376828;32;33572;-64
2023/06/26 09:18:55;;;;;;;8.95;6.97;;;;;;;27.60;39.42;99574.75;4376887;32;34629;-68
2023/06/26 09:21:24;;;;;;;10.48;7.15;;;;;;;27.59;39.45;99575.84;4376646;32;33876;-65
2023/06/26 09:23:52;;;;;;;9.05;6.22;;;;;;;27.62;39.43;99572.59;4364263;32;34658;-65
2023/06/26 09:26:20;;;;;;;11.10;7.57;;;;;;;27.62;39.50;99572.59;4361732;32;33284;-67
2023/06/26 09:28:48;;;;;;;12.20;7.53;;;;;;;27.62;39.56;99577.25;4363709;32;33654;-65
2023/06/26 09:31:16;;;;;;;8.73;6.55;;;;;;;27.61;39.59;99573.69;4377139;32;33733;-67
2023/06/26 09:34:04;;;;;;;8.80;6.55;;;;;;;27.60;39.62;99580.22;4354008;32;34341;-67
2023/06/26 09:36:32;;;;;;;9.32;6.95;;;;;;;27.62;39.60;99578.06;4374861;32;34781;-65
2023/06/26 09:39:08;;;;;;;12.40;6.62;;;;;;;27.62;39.63;99577.25;4375508;32;33502;-67
2023/06/26 09:41:35;;;;;;;8.63;6.90;;;;;;;27.63;39.70;99579.72;4375824;32;34933;-65
2023/06/26 09:44:03;;;;;;;9.82;6.72;;;;;;;27.63;39.71;99576.16;4375379;32;33939;-64
2023/06/26 09:46:31;;;;;;;8.57;6.62;;;;;;;27.62;39.77;99567.13;4375553;32;33542;-64
2023/06/26 09:49:12;;;;;;;8.38;6.18;;;;;;;27.63;39.78;99574.25;4376186;32;33576;-66
2023/06/26 09:51:41;;;;;;;9.75;6.50;;;;;;;27.64;39.75;99573.16;4376864;32;34144;-64
2023/06/26 09:54:09;;;;;;;8.32;6.72;;;;;;;27.64;39.80;99561.38;4376010;32;34929;-67
2023/06/26 09:56:37;;;;;;;9.07;6.78;;;;;;;27.64;39.80;99559.44;4363096;32;33784;-65
2023/06/26 09:59:05;;;;;;;8.55;6.43;;;;;;;27.64;39.87;99564.09;4362903;32;33738;-67
2023/06/26 10:01:32;;;;;;;9.02;6.62;;;;;;;27.63;39.89;99556.97;4376693;32;34966;-67
2023/06/26 10:04:00;;;;;;;8.55;6.85;;;;;;;27.64;39.88;99561.38;4376418;32;33904;-67
2023/06/26 10:06:35;;;;;;;9.93;6.70;;;;;;;27.63;39.92;99557.78;4376204;32;33523;-63
2023/06/26 10:09:06;;;;;;;9.20;6.15;;;;;;;27.64;39.92;99550.41;4376092;32;34715;-66
2023/06/26 10:11:44;;;;;;;8.80;6.68;;;;;;;27.65;39.89;99552.91;4376529;32;34109;-65
2023/06/26 10:14:11;;;;;;;9.82;6.65;;;;;;;27.64;39.92;99551.22;4350419;32;33194;-67
2023/06/26 10:16:45;;;;;;;8.77;5.90;;;;;;;27.64;39.97;99547.66;4351705;32;34403;-66
2023/06/26 10:19:13;;;;;;;9.13;6.60;;;;;;;27.64;39.97;99548.47;4362512;32;34433;-64
2023/06/26 10:21:41;;;;;;;8.07;6.12;;;;;;;27.63;40.00;99552.31;4362259;32;33625;-64
2023/06/26 10:24:09;;;;;;;8.38;6.43;;;;;;;27.64;39.99;99542.19;4376402;32;34172;-67
2023/06/26 10:26:40;;;;;;;9.32;6.68;;;;;;;27.64;39.99;99548.47;4350370;32;33690;-67
2023/06/26 10:29:08;;;;;;;7.47;6.03;;;;;;;27.64;39.99;99544.91;4350517;32;33547;-67
2023/06/26 10:31:35;;;;;;;9.00;6.50;;;;;;;27.65;39.96;99541.06;4362461;32;33924;-66
2023/06/26 10:34:03;;;;;;;8.90;6.62;;;;;;;27.65;39.93;99541.06;4375734;32;34739;-64
2023/06/26 10:36:31;;;;;;;8.95;6.68;;;;;;;27.65;39.91;99544.69;4363557;32;34093;-65
2023/06/26 10:39:04;;;;;;;8.18;6.30;;;;;;;27.66;39.89;99549.06;4376587;32;34095;-65
2023/06/26 10:41:43;;;;;;;8.80;6.10;;;;;;;27.65;39.88;99544.69;4376908;32;34873;-65
2023/06/26 10:44:39;;;;;;;7.45;6.03;;;;;;;27.68;39.79;99538.66;4365485;32;34070;-65
2023/06/26 10:47:07;;;;;;;8.43;6.10;;;;;;;27.68;39.76;99538.66;4363990;32;33556;-67
2023/06/26 10:49:36;;;;;;;8.60;6.30;;;;;;;27.69;39.77;99544.97;4362763;32;34794;-65
2023/06/26 10:52:03;;;;;;;6.95;5.65;;;;;;;27.68;39.77;99544.13;4362045;32;34096;-65
2023/06/26 10:54:32;;;;;;;9.32;6.00;;;;;;;27.70;39.73;99546.63;4377858;32;34082;-66
2023/06/26 10:57:00;;;;;;;7.40;5.53;;;;;;;27.70;39.70;99541.16;4376371;32;33320;-64
2023/06/26 10:59:28;;;;;;;7.25;5.37;;;;;;;27.70;39.68;99543.91;4352097;32;34952;-65
2023/06/26 11:02:01;;;;;;;7.68;5.97;;;;;;;27.70;39.68;99547.47;4377060;32;33986;-64
2023/06/26 11:04:44;;;;;;;7.03;5.80;;;;;;;27.69;39.71;99537.56;4377206;32;34982;-65
2023/06/26 11:07:20;;;;;;;7.68;5.87;;;;;;;27.73;39.70;99545.31;4349734;32;33776;-64
2023/06/26 11:10:09;;;;;;;7.03;5.57;;;;;;;27.71;39.74;99546.41;4361629;32;34549;-66
2023/06/26 11:12:43;;;;;;;7.97;5.70;;;;;;;27.73;39.71;99546.13;4376829;32;33781;-65
2023/06/26 11:15:12;;;;;;;7.53;5.43;;;;;;;27.72;39.80;99544.47;4377742;32;34142;-67
2023/06/26 11:17:41;;;;;;;7.53;5.60;;;;;;;27.72;39.75;99541.72;4376977;32;34068;-67
2023/06/26 11:20:10;;;;;;;8.23;5.65;;;;;;;27.72;39.73;99541.72;4375416;32;33942;-68
2023/06/26 11:22:38;;;;;;;7.37;5.55;;;;;;;27.72;39.67;99536.25;4365326;32;34703;-67
2023/06/26 11:25:07;;;;;;;7.95;5.85;;;;;;;27.72;39.64;99528.03;4349306;32;33905;-68
2023/06/26 11:27:41;;;;;;;7.50;5.72;;;;;;;27.72;39.61;99539.00;4367149;32;33354;-68
2023/06/26 11:30:10;;;;;;;8.45;5.80;;;;;;;27.72;39.61;99528.03;4357335;32;34370;-68
2023/06/26 11:32:38;;;;;;;7.93;5.53;;;;;;;27.73;39.60;99537.06;4371457;32;34042;-68
2023/06/26 11:35:06;;;;;;;9.07;6.12;;;;;;;27.73;39.55;99529.66;4363100;32;33922;-64
2023/06/26 11:37:34;;;;;;;8.02;6.10;;;;;;;27.74;39.57;99522.28;4374038;32;34341;-64
2023/06/26 11:40:22;;;;;;;7.97;5.72;;;;;;;27.73;39.58;99526.94;4369707;32;33932;-67